Time;durP1;ratioP1;P1;durP2;ratioP2;P2;SDS_P1;SDS_P2;PMS_P1;PMS_P2;Temp;Humidity;BMP_temperature;BMP_pressure;BME280_temperature;BME280_humidity;BME280_pressure;Samples;Min_cycle;Max_cycle;Signal;HPM_P1;HPM_P2
2023/06/28 00:01:15;;;;;;;10.52;2.30;;;;;;;;;;5088381;28;20032;-80
2023/06/28 00:03:42;;;;;;;10.95;3.13;;;;;;;;;;5088018;28;20040;-81
2023/06/28 00:06:08;;;;;;;10.02;2.50;;;;;;;;;;5087256;28;20028;-83
2023/06/28 00:08:35;;;;;;;5.95;2.22;;;;;;;;;;5084950;28;20029;-82
2023/06/28 00:11:01;;;;;;;4.82;2.53;;;;;;;;;;5090575;28;20042;-81
2023/06/28 00:13:27;;;;;;;5.45;2.00;;;;;;;;;;5085791;28;20025;-81
2023/06/28 00:15:53;;;;;;;8.15;2.75;;;;;;;;;;5086129;28;20040;-80
2023/06/28 00:18:22;;;;;;;8.10;2.42;;;;;;;;;;5086557;28;20042;-80
2023/06/28 00:20:48;;;;;;;7.95;2.47;;;;;;;;;;5084691;28;20101;-80
2023/06/28 00:23:14;;;;;;;8.05;2.42;;;;;;;;;;5086909;28;20025;-81
2023/06/28 00:25:41;;;;;;;9.45;2.15;;;;;;;;;;5087123;28;20039;-81
2023/06/28 00:28:07;;;;;;;7.65;2.67;;;;;;;;;;5087292;28;20025;-79
2023/06/28 00:30:33;;;;;;;6.80;1.75;;;;;;;;;;5084996;28;20059;-82
2023/06/28 00:33:00;;;;;;;8.38;2.40;;;;;;;;;;5071781;28;20040;-82
2023/06/28 00:35:26;;;;;;;7.95;2.25;;;;;;;;;;5085402;28;20254;-82
2023/06/28 00:37:52;;;;;;;12.23;1.73;;;;;;;;;;5085742;28;20017;-81
2023/06/28 00:40:18;;;;;;;5.30;2.03;;;;;;;;;;5086108;28;20108;-80
2023/06/28 00:42:50;;;;;;;4.47;2.08;;;;;;;;;;5085967;28;20024;-81
2023/06/28 00:45:18;;;;;;;5.97;1.85;;;;;;;;;;5086480;28;20025;-80
2023/06/28 00:47:45;;;;;;;10.10;2.10;;;;;;;;;;5088237;28;20123;-82
2023/06/28 00:50:12;;;;;;;8.68;2.38;;;;;;;;;;5085658;28;20005;-81
2023/06/28 00:52:39;;;;;;;8.13;1.88;;;;;;;;;;5086791;28;20021;-80
2023/06/28 00:55:05;;;;;;;9.02;1.95;;;;;;;;;;5088210;28;20036;-81
2023/06/28 00:57:31;;;;;;;7.07;2.05;;;;;;;;;;5086742;28;20047;-80
2023/06/28 00:59:58;;;;;;;11.18;2.17;;;;;;;;;;5084721;28;20019;-80
2023/06/28 01:02:29;;;;;;;8.32;2.08;;;;;;;;;;5086862;28;20063;-82
2023/06/28 01:04:58;;;;;;;6.95;2.25;;;;;;;;;;5084973;28;20040;-81
2023/06/28 01:07:26;;;;;;;11.07;2.92;;;;;;;;;;5089369;28;20043;-79
2023/06/28 01:09:52;;;;;;;6.20;2.20;;;;;;;;;;5089731;28;20009;-82
2023/06/28 01:12:18;;;;;;;9.63;2.28;;;;;;;;;;5086867;28;20096;-81
2023/06/28 01:14:45;;;;;;;6.43;1.70;;;;;;;;;;5084151;28;20041;-82
2023/06/28 01:17:12;;;;;;;7.70;1.50;;;;;;;;;;5085418;28;20033;-82
2023/06/28 01:19:39;;;;;;;9.52;2.20;;;;;;;;;;5084211;28;20028;-81
2023/06/28 01:22:08;;;;;;;8.85;2.10;;;;;;;;;;5086384;28;20040;-80
2023/06/28 01:24:36;;;;;;;5.85;2.15;;;;;;;;;;5087380;28;20032;-82
2023/06/28 01:27:03;;;;;;;8.13;2.05;;;;;;;;;;5084904;28;20037;-80
2023/06/28 01:29:29;;;;;;;6.72;1.92;;;;;;;;;;5086994;28;20025;-80
2023/06/28 01:31:56;;;;;;;7.82;2.30;;;;;;;;;;5087559;28;20123;-80
2023/06/28 01:34:22;;;;;;;7.70;2.35;;;;;;;;;;5085667;28;20021;-81
2023/06/28 01:36:52;;;;;;;5.05;2.08;;;;;;;;;;5083165;28;20040;-80
2023/06/28 01:39:19;;;;;;;8.07;1.85;;;;;;;;;;5086732;28;20028;-79
2023/06/28 01:41:46;;;;;;;6.40;2.30;;;;;;;;;;5085391;28;20039;-81
2023/06/28 01:44:12;;;;;;;4.45;1.80;;;;;;;;;;5084993;28;20035;-81
2023/06/28 01:46:39;;;;;;;6.40;1.95;;;;;;;;;;5085027;28;20024;-80
2023/06/28 01:49:05;;;;;;;12.30;2.28;;;;;;;;;;5086745;28;20307;-81
2023/06/28 01:51:31;;;;;;;7.53;2.40;;;;;;;;;;5083907;28;20025;-79
2023/06/28 01:53:57;;;;;;;6.95;2.40;;;;;;;;;;5086632;28;20040;-81
2023/06/28 01:56:23;;;;;;;5.82;1.85;;;;;;;;;;5087103;28;20025;-80
2023/06/28 01:58:54;;;;;;;5.40;1.70;;;;;;;;;;5082673;28;20050;-81
2023/06/28 02:01:20;;;;;;;6.47;2.15;;;;;;;;;;5087482;28;20028;-81
2023/06/28 02:03:47;;;;;;;6.00;1.67;;;;;;;;;;5085818;28;20123;-81
2023/06/28 02:06:15;;;;;;;4.75;1.27;;;;;;;;;;5086873;28;20037;-81
2023/06/28 02:08:41;;;;;;;9.93;2.15;;;;;;;;;;5086719;28;20069;-81
2023/06/28 02:11:09;;;;;;;7.47;2.10;;;;;;;;;;5088299;28;20036;-81
2023/06/28 02:13:36;;;;;;;3.42;1.85;;;;;;;;;;5089589;28;20020;-80
2023/06/28 02:16:02;;;;;;;9.45;1.90;;;;;;;;;;5100119;28;20037;-81
2023/06/28 02:18:31;;;;;;;3.92;2.03;;;;;;;;;;5092039;28;20033;-80
2023/06/28 02:20:57;;;;;;;4.53;1.75;;;;;;;;;;5089292;28;20009;-81
2023/06/28 02:23:25;;;;;;;8.38;1.85;;;;;;;;;;5091114;28;20033;-80
2023/06/28 02:25:52;;;;;;;5.07;1.63;;;;;;;;;;5089091;28;20021;-80
2023/06/28 02:28:19;;;;;;;8.93;2.35;;;;;;;;;;5092741;28;20025;-81
2023/06/28 02:30:45;;;;;;;5.35;1.52;;;;;;;;;;5089756;28;20036;-80
2023/06/28 02:33:11;;;;;;;7.03;1.63;;;;;;;;;;5089530;28;20024;-81
2023/06/28 02:35:37;;;;;;;6.95;1.95;;;;;;;;;;5089279;28;20025;-80
2023/06/28 02:38:04;;;;;;;7.93;2.20;;;;;;;;;;5089956;28;20028;-80
2023/06/28 02:40:32;;;;;;;6.13;1.90;;;;;;;;;;5088971;28;20012;-80
2023/06/28 02:42:58;;;;;;;9.05;1.88;;;;;;;;;;5090313;28;20048;-82
2023/06/28 02:45:24;;;;;;;8.13;2.22;;;;;;;;;;5087069;28;20017;-80
2023/06/28 02:47:50;;;;;;;3.92;1.55;;;;;;;;;;5089353;28;20024;-81
2023/06/28 02:50:17;;;;;;;9.57;2.47;;;;;;;;;;5089313;28;20033;-81
2023/06/28 02:52:43;;;;;;;5.65;1.92;;;;;;;;;;5087767;28;20032;-82
2023/06/28 02:55:11;;;;;;;7.68;2.40;;;;;;;;;;5088411;28;20009;-82
2023/06/28 02:57:37;;;;;;;10.55;1.75;;;;;;;;;;5088138;28;20044;-81
2023/06/28 03:00:04;;;;;;;4.40;1.92;;;;;;;;;;5088592;28;20047;-80
2023/06/28 03:02:30;;;;;;;3.97;1.52;;;;;;;;;;5084972;28;20037;-79
2023/06/28 03:04:56;;;;;;;9.35;2.58;;;;;;;;;;5090029;28;20037;-81
2023/06/28 03:07:23;;;;;;;5.30;2.05;;;;;;;;;;5089068;28;20040;-81
2023/06/28 03:09:49;;;;;;;5.95;2.25;;;;;;;;;;5092483;28;20046;-81
2023/06/28 03:12:15;;;;;;;5.50;2.15;;;;;;;;;;5088028;28;20096;-82
2023/06/28 03:14:43;;;;;;;4.85;2.58;;;;;;;;;;5079579;28;20473;-80
2023/06/28 03:17:10;;;;;;;4.95;2.00;;;;;;;;;;5086669;28;20092;-79
2023/06/28 03:19:36;;;;;;;7.10;2.33;;;;;;;;;;5086018;28;20020;-81
2023/06/28 03:22:03;;;;;;;9.15;1.77;;;;;;;;;;5089023;28;20031;-81
2023/06/28 03:24:29;;;;;;;5.57;1.88;;;;;;;;;;5088624;28;20032;-79
2023/06/28 03:26:55;;;;;;;6.00;2.30;;;;;;;;;;5086978;28;20059;-79
2023/06/28 03:29:21;;;;;;;5.65;2.00;;;;;;;;;;5087787;28;20023;-82
2023/06/28 03:31:48;;;;;;;4.20;2.10;;;;;;;;;;5088846;28;20024;-81
2023/06/28 03:34:14;;;;;;;8.18;2.30;;;;;;;;;;5087266;28;20076;-81
2023/06/28 03:36:40;;;;;;;8.30;2.50;;;;;;;;;;5087592;28;20021;-79
2023/06/28 03:39:06;;;;;;;5.45;2.28;;;;;;;;;;5092950;28;21032;-81
2023/06/28 03:41:32;;;;;;;5.93;2.10;;;;;;;;;;5092500;28;20029;-80
2023/06/28 03:43:59;;;;;;;11.18;2.95;;;;;;;;;;5087742;28;20045;-80
2023/06/28 03:46:25;;;;;;;7.88;2.03;;;;;;;;;;5085845;28;20051;-82
2023/06/28 03:48:51;;;;;;;7.85;2.13;;;;;;;;;;5087822;28;20040;-81
2023/06/28 03:51:19;;;;;;;10.25;2.40;;;;;;;;;;5087346;28;20064;-80
2023/06/28 03:53:45;;;;;;;5.40;2.40;;;;;;;;;;5088563;28;20096;-80
2023/06/28 03:56:13;;;;;;;6.85;1.77;;;;;;;;;;5087379;28;20036;-81
2023/06/28 03:58:40;;;;;;;6.40;2.22;;;;;;;;;;5083005;28;20080;-81
2023/06/28 04:01:06;;;;;;;4.45;2.15;;;;;;;;;;5071530;28;20560;-80
2023/06/28 04:03:32;;;;;;;5.93;1.80;;;;;;;;;;5086686;28;20032;-81
2023/06/28 04:05:59;;;;;;;4.43;2.15;;;;;;;;;;5086085;28;20036;-81
2023/06/28 04:08:26;;;;;;;7.65;2.17;;;;;;;;;;5086632;28;20032;-81
2023/06/28 04:10:53;;;;;;;6.32;1.92;;;;;;;;;;5089490;28;20074;-81
2023/06/28 04:13:19;;;;;;;9.20;2.75;;;;;;;;;;5040938;28;20014;-80
2023/06/28 04:15:46;;;;;;;6.35;2.00;;;;;;;;;;5010636;28;20029;-80
2023/06/28 04:18:12;;;;;;;6.22;2.08;;;;;;;;;;5040757;28;20014;-80
2023/06/28 04:20:38;;;;;;;6.15;2.40;;;;;;;;;;5035756;28;20081;-82
2023/06/28 04:23:04;;;;;;;6.00;2.15;;;;;;;;;;5042462;28;20014;-81
2023/06/28 04:25:30;;;;;;;9.27;2.45;;;;;;;;;;5032888;28;20042;-81
2023/06/28 04:27:59;;;;;;;2.67;1.70;;;;;;;;;;5030631;28;20023;-80
2023/06/28 04:30:25;;;;;;;8.18;1.88;;;;;;;;;;5032012;28;20105;-80
2023/06/28 04:32:52;;;;;;;16.10;2.92;;;;;;;;;;5033204;28;20049;-83
2023/06/28 04:35:21;;;;;;;6.65;2.10;;;;;;;;;;5031801;28;20044;-83
2023/06/28 04:37:47;;;;;;;6.82;2.03;;;;;;;;;;5033156;28;20089;-81
2023/06/28 04:40:15;;;;;;;11.07;1.73;;;;;;;;;;5042025;28;20042;-81
2023/06/28 04:42:44;;;;;;;6.43;2.10;;;;;;;;;;5027648;28;20060;-82
2023/06/28 04:45:13;;;;;;;4.60;2.35;;;;;;;;;;5078309;28;20045;-80
2023/06/28 04:47:39;;;;;;;4.00;2.17;;;;;;;;;;5086867;28;20052;-82
2023/06/28 04:50:05;;;;;;;3.78;1.98;;;;;;;;;;5083426;28;20040;-81
2023/06/28 04:52:31;;;;;;;6.95;2.35;;;;;;;;;;5087241;28;20097;-82
2023/06/28 04:54:59;;;;;;;8.60;2.50;;;;;;;;;;5086694;28;20062;-80
2023/06/28 04:57:25;;;;;;;12.80;2.60;;;;;;;;;;5082164;28;20562;-81
2023/06/28 04:59:52;;;;;;;9.82;3.00;;;;;;;;;;5083575;28;20052;-80
2023/06/28 05:02:21;;;;;;;5.22;2.05;;;;;;;;;;5084209;28;20021;-80
2023/06/28 05:04:47;;;;;;;9.10;2.40;;;;;;;;;;5084302;28;20021;-83
2023/06/28 05:07:13;;;;;;;8.95;2.70;;;;;;;;;;5059029;28;20049;-79
2023/06/28 05:09:39;;;;;;;4.13;2.13;;;;;;;;;;5046101;28;20071;-81
2023/06/28 05:12:05;;;;;;;11.07;2.53;;;;;;;;;;5058551;28;20129;-80
2023/06/28 05:14:32;;;;;;;11.60;2.90;;;;;;;;;;5042509;28;20143;-80
2023/06/28 05:16:58;;;;;;;8.93;2.67;;;;;;;;;;5043028;28;20037;-81
2023/06/28 05:19:25;;;;;;;11.48;2.95;;;;;;;;;;5040631;28;20021;-80
2023/06/28 05:21:51;;;;;;;6.07;3.00;;;;;;;;;;5056031;28;20041;-81
2023/06/28 05:24:18;;;;;;;9.82;2.83;;;;;;;;;;5059671;28;20028;-83
2023/06/28 05:26:45;;;;;;;9.88;2.17;;;;;;;;;;5040084;28;20057;-80
2023/06/28 05:29:11;;;;;;;7.43;2.15;;;;;;;;;;5059715;28;20025;-81
2023/06/28 05:31:38;;;;;;;8.07;2.55;;;;;;;;;;5046217;28;20036;-81
2023/06/28 05:34:13;;;;;;;5.90;2.05;;;;;;;;;;5058978;28;20033;-81
2023/06/28 05:36:40;;;;;;;5.40;1.88;;;;;;;;;;5057187;28;20067;-81
2023/06/28 05:39:08;;;;;;;4.68;1.98;;;;;;;;;;5081538;28;20036;-81
2023/06/28 05:41:36;;;;;;;8.95;2.58;;;;;;;;;;5066734;28;20615;-80
2023/06/28 05:44:02;;;;;;;10.18;2.25;;;;;;;;;;5074988;28;20041;-81
2023/06/28 05:46:29;;;;;;;7.38;2.28;;;;;;;;;;5068294;28;20016;-80
2023/06/28 05:48:55;;;;;;;14.25;2.53;;;;;;;;;;5072089;28;20036;-80
2023/06/28 05:51:24;;;;;;;9.40;2.63;;;;;;;;;;5065204;28;20029;-81
2023/06/28 05:54:14;;;;;;;9.32;2.85;;;;;;;;;;5072960;28;20074;-80
2023/06/28 05:59:57;;;;;;;6.55;2.50;;;;;;;;;;5033848;28;20065;-81
2023/06/28 06:02:26;;;;;;;7.97;3.33;;;;;;;;;;5021187;28;20120;-80
2023/06/28 06:04:52;;;;;;;11.20;2.90;;;;;;;;;;5013315;28;20133;-79
2023/06/28 06:07:18;;;;;;;7.95;3.33;;;;;;;;;;5018216;28;20123;-79
2023/06/28 06:09:44;;;;;;;12.60;3.25;;;;;;;;;;5010959;28;20136;-79
2023/06/28 06:12:10;;;;;;;8.43;2.67;;;;;;;;;;4990488;28;20042;-79
2023/06/28 06:14:36;;;;;;;6.72;2.42;;;;;;;;;;5016480;28;20078;-80
2023/06/28 06:17:02;;;;;;;9.48;2.75;;;;;;;;;;4999409;28;20041;-81
2023/06/28 06:19:28;;;;;;;6.60;1.80;;;;;;;;;;5002239;28;20030;-80
2023/06/28 06:21:54;;;;;;;10.70;2.45;;;;;;;;;;5004467;28;20037;-80
2023/06/28 06:24:20;;;;;;;9.65;2.42;;;;;;;;;;4994003;28;20041;-80
2023/06/28 06:26:46;;;;;;;7.85;2.97;;;;;;;;;;4999533;28;20041;-81
2023/06/28 06:29:12;;;;;;;10.98;3.67;;;;;;;;;;5015784;28;20129;-79
2023/06/28 06:31:38;;;;;;;5.45;2.50;;;;;;;;;;5001412;28;20037;-80
2023/06/28 06:34:04;;;;;;;7.50;2.30;;;;;;;;;;5006248;28;20440;-81
2023/06/28 06:36:30;;;;;;;8.82;2.50;;;;;;;;;;5029350;28;20040;-79
2023/06/28 06:38:56;;;;;;;12.52;2.83;;;;;;;;;;5075741;28;20040;-80
2023/06/28 06:41:23;;;;;;;10.82;3.03;;;;;;;;;;5077511;28;20044;-79
2023/06/28 06:43:49;;;;;;;13.80;3.40;;;;;;;;;;5077089;28;20032;-80
2023/06/28 06:46:16;;;;;;;5.97;2.60;;;;;;;;;;5077012;28;20036;-81
2023/06/28 06:48:42;;;;;;;9.18;2.40;;;;;;;;;;5076798;28;20040;-80
2023/06/28 06:51:08;;;;;;;7.05;1.98;;;;;;;;;;5078996;28;20021;-79
2023/06/28 06:53:34;;;;;;;11.18;3.00;;;;;;;;;;5079918;28;20054;-80
2023/06/28 06:56:01;;;;;;;6.25;2.47;;;;;;;;;;5082302;28;20024;-80
2023/06/28 06:58:27;;;;;;;5.28;2.38;;;;;;;;;;5082659;28;20047;-79
2023/06/28 07:00:53;;;;;;;8.90;2.58;;;;;;;;;;5083439;28;20071;-82
2023/06/28 07:03:19;;;;;;;6.80;2.15;;;;;;;;;;5082650;28;20448;-80
2023/06/28 07:05:46;;;;;;;12.45;3.25;;;;;;;;;;5080396;28;20029;-82
2023/06/28 07:08:12;;;;;;;10.50;2.90;;;;;;;;;;5080491;28;20279;-80
2023/06/28 07:10:38;;;;;;;9.00;2.60;;;;;;;;;;5079790;28;20059;-79
2023/06/28 07:13:04;;;;;;;12.27;2.70;;;;;;;;;;5075165;28;20056;-80
2023/06/28 07:15:33;;;;;;;6.60;2.47;;;;;;;;;;5078133;28;20024;-79
2023/06/28 07:18:01;;;;;;;5.63;2.35;;;;;;;;;;5082394;28;20074;-81
2023/06/28 07:20:27;;;;;;;11.60;3.22;;;;;;;;;;5084392;28;20035;-78
2023/06/28 07:22:53;;;;;;;10.38;2.55;;;;;;;;;;5078667;28;20035;-80
2023/06/28 07:25:19;;;;;;;8.10;2.25;;;;;;;;;;5078017;28;20033;-79
2023/06/28 07:27:45;;;;;;;13.38;2.90;;;;;;;;;;5076007;28;20040;-79
2023/06/28 07:30:11;;;;;;;6.80;2.72;;;;;;;;;;5076270;28;20056;-81
2023/06/28 07:32:37;;;;;;;6.90;2.10;;;;;;;;;;5078732;28;20028;-81
2023/06/28 07:35:03;;;;;;;10.00;2.65;;;;;;;;;;5079263;28;20047;-80
2023/06/28 07:37:30;;;;;;;9.80;1.98;;;;;;;;;;5084851;28;20024;-80
2023/06/28 07:39:58;;;;;;;7.65;1.90;;;;;;;;;;5083892;28;20023;-79
2023/06/28 07:42:24;;;;;;;18.83;2.42;;;;;;;;;;5082094;28;20028;-79
2023/06/28 07:44:50;;;;;;;12.05;2.90;;;;;;;;;;5081068;28;20055;-80
2023/06/28 07:47:16;;;;;;;5.82;1.63;;;;;;;;;;5079614;28;20027;-80
2023/06/28 07:49:42;;;;;;;5.07;2.10;;;;;;;;;;5075519;28;20416;-80
2023/06/28 07:52:09;;;;;;;8.55;1.95;;;;;;;;;;5081900;28;20028;-80
2023/06/28 07:54:35;;;;;;;10.20;2.22;;;;;;;;;;5080836;28;20056;-80
2023/06/28 07:57:01;;;;;;;5.85;2.30;;;;;;;;;;5080582;28;20361;-80
2023/06/28 07:59:27;;;;;;;4.97;2.33;;;;;;;;;;5079163;28;20032;-82
2023/06/28 08:01:53;;;;;;;7.03;2.10;;;;;;;;;;5078562;28;20028;-79
2023/06/28 08:04:20;;;;;;;11.30;2.63;;;;;;;;;;5079833;28;20028;-78
2023/06/28 08:06:46;;;;;;;13.13;3.15;;;;;;;;;;5081570;28;20025;-83
2023/06/28 08:09:12;;;;;;;7.57;2.65;;;;;;;;;;5085180;28;20121;-82
2023/06/28 08:11:38;;;;;;;18.27;3.53;;;;;;;;;;5083481;28;20040;-80
2023/06/28 08:14:05;;;;;;;16.98;3.90;;;;;;;;;;5078845;28;20037;-81
2023/06/28 08:16:31;;;;;;;8.15;3.70;;;;;;;;;;5079929;28;20092;-80
2023/06/28 08:18:57;;;;;;;9.70;3.40;;;;;;;;;;5076681;28;20071;-80
2023/06/28 08:21:23;;;;;;;8.48;3.95;;;;;;;;;;5079696;28;20051;-79
2023/06/28 08:23:49;;;;;;;10.00;3.25;;;;;;;;;;5084432;28;20044;-81
2023/06/28 08:26:15;;;;;;;16.75;4.03;;;;;;;;;;5081091;28;20035;-80
2023/06/28 08:28:42;;;;;;;10.30;4.03;;;;;;;;;;5075859;28;20036;-79
2023/06/28 08:31:08;;;;;;;11.35;5.43;;;;;;;;;;5076376;28;20029;-81
2023/06/28 08:33:34;;;;;;;10.95;3.40;;;;;;;;;;5080087;28;20055;-81
2023/06/28 08:36:02;;;;;;;10.82;3.25;;;;;;;;;;5075638;28;20096;-81
2023/06/28 08:38:30;;;;;;;7.43;3.17;;;;;;;;;;5080705;28;20016;-80
2023/06/28 08:40:56;;;;;;;8.68;3.55;;;;;;;;;;5081849;28;20032;-81
2023/06/28 08:43:24;;;;;;;10.85;3.15;;;;;;;;;;5082132;28;21157;-81
2023/06/28 08:45:50;;;;;;;5.97;2.13;;;;;;;;;;5082082;28;20082;-80
2023/06/28 08:48:17;;;;;;;8.07;2.40;;;;;;;;;;5071778;28;20036;-81
2023/06/28 08:50:44;;;;;;;10.07;2.70;;;;;;;;;;5071688;28;20127;-82
2023/06/28 08:53:16;;;;;;;5.45;2.60;;;;;;;;;;5086172;28;20005;-79
2023/06/28 08:55:42;;;;;;;4.85;1.80;;;;;;;;;;5084209;28;20037;-78
2023/06/28 08:58:10;;;;;;;7.22;2.40;;;;;;;;;;5091003;28;20021;-80
2023/06/28 09:00:37;;;;;;;10.45;3.00;;;;;;;;;;5085720;28;20085;-80
2023/06/28 09:03:03;;;;;;;6.35;2.03;;;;;;;;;;5082876;28;20348;-80
2023/06/28 09:05:30;;;;;;;9.10;2.92;;;;;;;;;;5088603;28;20062;-80
2023/06/28 09:07:57;;;;;;;8.85;3.13;;;;;;;;;;5071249;28;20024;-79
2023/06/28 09:10:24;;;;;;;10.38;2.58;;;;;;;;;;5074472;28;20088;-80
2023/06/28 09:12:51;;;;;;;6.78;2.35;;;;;;;;;;5075453;28;20016;-80
2023/06/28 09:15:20;;;;;;;6.50;2.47;;;;;;;;;;5077054;28;20062;-80
2023/06/28 09:17:46;;;;;;;9.63;2.25;;;;;;;;;;5073825;28;20036;-80
2023/06/28 09:20:16;;;;;;;5.75;1.67;;;;;;;;;;5082186;28;20024;-79
2023/06/28 09:22:43;;;;;;;6.50;1.92;;;;;;;;;;5081886;28;20025;-81
2023/06/28 09:25:09;;;;;;;6.90;2.00;;;;;;;;;;5082547;28;20052;-79
2023/06/28 09:27:35;;;;;;;5.65;1.95;;;;;;;;;;5089542;28;20013;-81
2023/06/28 09:30:01;;;;;;;6.53;2.33;;;;;;;;;;5086023;28;20029;-80
2023/06/28 09:32:40;;;;;;;7.65;2.15;;;;;;;;;;5083973;28;20020;-80
2023/06/28 09:35:10;;;;;;;8.23;2.53;;;;;;;;;;5084064;28;20024;-79
2023/06/28 09:37:37;;;;;;;8.18;2.00;;;;;;;;;;5084284;28;20040;-79
2023/06/28 09:40:05;;;;;;;10.68;2.38;;;;;;;;;;5083172;28;20021;-80
2023/06/28 09:42:32;;;;;;;8.82;2.10;;;;;;;;;;5083503;28;20055;-79
2023/06/28 09:44:58;;;;;;;5.25;1.70;;;;;;;;;;5087587;28;20046;-80
2023/06/28 09:47:33;;;;;;;6.60;2.67;;;;;;;;;;5080834;28;20032;-80
2023/06/28 09:50:03;;;;;;;7.05;1.95;;;;;;;;;;5085835;28;20100;-79
2023/06/28 09:52:48;;;;;;;3.60;1.67;;;;;;;;;;5086579;28;20021;-77
2023/06/28 09:55:14;;;;;;;9.00;2.00;;;;;;;;;;5085618;28;20020;-80
2023/06/28 09:57:42;;;;;;;4.85;1.75;;;;;;;;;;5079965;28;20024;-80
2023/06/28 10:00:09;;;;;;;8.20;1.88;;;;;;;;;;5085008;28;20063;-79
2023/06/28 10:02:36;;;;;;;4.78;1.40;;;;;;;;;;5082511;28;20086;-80
2023/06/28 10:05:03;;;;;;;9.60;2.17;;;;;;;;;;5079908;28;21628;-80
2023/06/28 10:07:35;;;;;;;7.25;1.85;;;;;;;;;;5082452;28;21834;-79
2023/06/28 10:10:01;;;;;;;6.05;1.52;;;;;;;;;;5221422;23;20070;-80
2023/06/28 10:12:28;;;;;;;8.20;1.27;;;;;;;;;;5235554;22;20119;-80
2023/06/28 10:14:55;;;;;;;4.38;1.77;;;;;;;;;;5137750;22;20109;-79
2023/06/28 10:17:21;;;;;;;5.43;1.70;;;;;;;;;;5076066;28;20032;-79
2023/06/28 10:19:54;;;;;;;4.90;1.52;;;;;;;;;;5074601;28;20021;-80
2023/06/28 10:22:20;;;;;;;6.05;1.58;;;;;;;;;;5072423;28;20590;-80
2023/06/28 10:24:46;;;;;;;8.18;2.00;;;;;;;;;;5063666;28;20083;-79
2023/06/28 10:27:12;;;;;;;5.22;1.65;;;;;;;;;;5070286;28;20096;-78
2023/06/28 10:29:38;;;;;;;7.35;2.25;;;;;;;;;;5078278;28;20013;-79
2023/06/28 10:32:07;;;;;;;6.63;1.88;;;;;;;;;;5079834;28;20023;-79
2023/06/28 10:34:34;;;;;;;7.05;1.90;;;;;;;;;;5078203;28;20013;-79
2023/06/28 10:37:00;;;;;;;4.45;1.67;;;;;;;;;;5075970;28;20021;-79
2023/06/28 10:39:26;;;;;;;5.55;1.55;;;;;;;;;;5074670;28;20086;-79
2023/06/28 10:41:56;;;;;;;6.35;1.90;;;;;;;;;;5068575;28;20460;-80
2023/06/28 10:44:22;;;;;;;8.30;2.15;;;;;;;;;;5063562;28;20036;-81
2023/06/28 10:46:51;;;;;;;10.10;1.95;;;;;;;;;;5052665;28;20017;-82
2023/06/28 10:49:17;;;;;;;9.63;2.10;;;;;;;;;;5055727;28;20116;-80
2023/06/28 10:51:47;;;;;;;6.55;2.70;;;;;;;;;;5057401;28;20068;-81
2023/06/28 10:54:14;;;;;;;7.30;2.20;;;;;;;;;;5059681;28;20090;-81
2023/06/28 10:56:50;;;;;;;9.85;2.40;;;;;;;;;;5050945;28;20021;-82
2023/06/28 10:59:17;;;;;;;7.22;2.13;;;;;;;;;;5068150;28;20919;-82
2023/06/28 11:01:49;;;;;;;9.30;2.38;;;;;;;;;;5057958;28;20043;-83
2023/06/28 11:04:17;;;;;;;;;;;;;;;;;;5058658;28;20151;-84
2023/06/28 11:06:44;;;;;;;12.25;4.28;;;;;;;;;;5055882;28;19958;-83
2023/06/28 11:09:14;;;;;;;8.75;2.55;;;;;;;;;;5054922;28;20458;-83
2023/06/28 11:11:41;;;;;;;8.93;2.90;;;;;;;;;;5047205;28;20016;-86
2023/06/28 11:14:37;;;;;;;10.85;3.40;;;;;;;;;;5054750;28;20025;-83
2023/06/28 11:17:07;;;;;;;6.07;2.30;;;;;;;;;;5041455;28;20041;-84
2023/06/28 11:19:33;;;;;;;7.57;1.80;;;;;;;;;;5054462;28;20123;-84
2023/06/28 11:22:00;;;;;;;7.85;2.55;;;;;;;;;;5053013;28;20025;-83
2023/06/28 11:24:29;;;;;;;8.77;2.55;;;;;;;;;;5056872;28;20017;-83
2023/06/28 11:26:55;;;;;;;6.03;2.28;;;;;;;;;;5071060;28;20021;-83
2023/06/28 11:29:21;;;;;;;6.97;2.30;;;;;;;;;;5055655;28;20088;-81
2023/06/28 11:31:56;;;;;;;8.80;2.30;;;;;;;;;;5052637;28;20021;-81
2023/06/28 11:34:22;;;;;;;7.82;2.33;;;;;;;;;;5073570;28;20021;-81
2023/06/28 11:36:49;;;;;;;8.90;2.28;;;;;;;;;;5055193;28;20361;-80
2023/06/28 11:39:19;;;;;;;9.60;3.05;;;;;;;;;;5049836;28;20358;-81
2023/06/28 11:41:45;;;;;;;8.32;3.50;;;;;;;;;;5068047;28;20028;-83
2023/06/28 11:44:12;;;;;;;10.63;3.10;;;;;;;;;;5071729;28;20048;-83
2023/06/28 11:46:39;;;;;;;5.75;2.30;;;;;;;;;;5055727;28;20025;-82
2023/06/28 11:49:08;;;;;;;11.02;2.75;;;;;;;;;;5054925;28;20029;-83
2023/06/28 11:51:35;;;;;;;6.53;2.33;;;;;;;;;;5053204;28;20025;-82
2023/06/28 11:54:01;;;;;;;8.40;3.63;;;;;;;;;;5052921;28;20025;-82
2023/06/28 11:56:39;;;;;;;5.90;2.35;;;;;;;;;;5053762;28;20373;-82
2023/06/28 11:59:15;;;;;;;6.55;2.55;;;;;;;;;;5069770;28;20048;-80
2023/06/28 12:01:41;;;;;;;11.32;2.90;;;;;;;;;;5068549;28;20028;-81
2023/06/28 12:04:17;;;;;;;9.77;3.15;;;;;;;;;;5053256;28;20170;-81
2023/06/28 12:06:44;;;;;;;8.90;2.28;;;;;;;;;;5054792;28;20024;-83
2023/06/28 12:09:20;;;;;;;8.38;2.42;;;;;;;;;;5067372;28;21676;-82
2023/06/28 12:12:05;;;;;;;11.50;3.03;;;;;;;;;;5053885;28;20031;-81
2023/06/28 12:14:42;;;;;;;9.68;2.55;;;;;;;;;;5054003;28;20144;-81
2023/06/28 12:17:09;;;;;;;8.60;2.75;;;;;;;;;;5043982;28;20025;-80
2023/06/28 12:19:38;;;;;;;9.02;2.47;;;;;;;;;;5071403;28;20442;-81
2023/06/28 12:22:06;;;;;;;7.13;2.35;;;;;;;;;;5055035;28;20025;-84
2023/06/28 12:24:34;;;;;;;13.32;3.15;;;;;;;;;;5052977;28;20476;-81
2023/06/28 12:27:01;;;;;;;8.38;2.75;;;;;;;;;;5054147;28;20025;-81
2023/06/28 12:29:29;;;;;;;10.45;2.53;;;;;;;;;;5055578;28;20855;-80
2023/06/28 12:31:56;;;;;;;9.93;2.30;;;;;;;;;;5053003;28;20528;-81
2023/06/28 12:34:34;;;;;;;6.53;2.40;;;;;;;;;;5053795;28;20145;-81
2023/06/28 12:37:06;;;;;;;12.25;2.60;;;;;;;;;;5053351;28;20361;-82
2023/06/28 12:39:33;;;;;;;9.50;3.45;;;;;;;;;;5054414;28;20172;-83
2023/06/28 12:42:11;;;;;;;6.70;3.47;;;;;;;;;;5052147;28;20508;-81
2023/06/28 12:44:55;;;;;;;9.52;2.78;;;;;;;;;;5053139;28;20021;-81
2023/06/28 12:47:32;;;;;;;10.00;3.33;;;;;;;;;;5069029;28;20444;-81
2023/06/28 12:49:58;;;;;;;11.93;3.50;;;;;;;;;;5054053;28;20479;-81
2023/06/28 12:52:25;;;;;;;11.45;3.50;;;;;;;;;;5049135;28;20115;-81
2023/06/28 12:54:52;;;;;;;7.38;2.60;;;;;;;;;;5050647;28;20033;-81
2023/06/28 12:57:18;;;;;;;11.38;3.25;;;;;;;;;;5045287;28;20032;-81
2023/06/28 12:59:44;;;;;;;9.00;3.08;;;;;;;;;;5052202;28;20032;-81
2023/06/28 13:02:10;;;;;;;6.55;3.30;;;;;;;;;;5053039;28;20060;-82
2023/06/28 13:04:37;;;;;;;11.93;3.95;;;;;;;;;;5055704;28;20936;-81
2023/06/28 13:07:04;;;;;;;8.50;2.92;;;;;;;;;;5050763;28;20025;-81
2023/06/28 13:09:30;;;;;;;8.13;3.38;;;;;;;;;;5069335;28;20028;-82
2023/06/28 13:11:56;;;;;;;11.48;3.65;;;;;;;;;;5053169;28;20111;-81
2023/06/28 13:14:22;;;;;;;8.35;3.65;;;;;;;;;;5088504;22;20167;-82
2023/06/28 13:16:48;;;;;;;8.88;3.42;;;;;;;;;;5049961;28;20028;-82
2023/06/28 13:19:19;;;;;;;6.68;3.03;;;;;;;;;;5051774;28;20028;-81
2023/06/28 13:21:51;;;;;;;12.35;3.30;;;;;;;;;;5053741;28;20437;-80
2023/06/28 13:24:17;;;;;;;9.88;3.22;;;;;;;;;;5051408;28;20033;-81
2023/06/28 13:26:46;;;;;;;7.65;2.75;;;;;;;;;;5067167;28;20030;-81
2023/06/28 13:29:15;;;;;;;6.57;2.60;;;;;;;;;;5051326;28;20028;-81
2023/06/28 13:31:43;;;;;;;7.85;3.45;;;;;;;;;;5052153;28;20040;-81
2023/06/28 13:34:09;;;;;;;10.60;2.60;;;;;;;;;;5067181;28;20016;-81
2023/06/28 13:36:35;;;;;;;8.18;3.30;;;;;;;;;;5052100;28;20588;-80
2023/06/28 13:39:01;;;;;;;9.60;3.55;;;;;;;;;;5052598;28;20036;-80
2023/06/28 13:41:27;;;;;;;9.85;2.78;;;;;;;;;;5051400;28;20127;-81
2023/06/28 13:43:53;;;;;;;8.27;3.00;;;;;;;;;;5051778;28;20115;-81
2023/06/28 13:46:19;;;;;;;10.75;3.05;;;;;;;;;;5050871;28;20447;-81
2023/06/28 13:48:45;;;;;;;7.38;2.70;;;;;;;;;;5065895;28;20072;-82
2023/06/28 13:51:11;;;;;;;13.43;3.50;;;;;;;;;;5051760;28;20029;-82
2023/06/28 13:53:37;;;;;;;5.53;3.03;;;;;;;;;;5053226;28;20017;-81
2023/06/28 13:56:06;;;;;;;12.77;3.03;;;;;;;;;;5049862;28;20029;-82
2023/06/28 13:58:32;;;;;;;10.00;2.97;;;;;;;;;;5053059;28;20025;-81
2023/06/28 14:00:59;;;;;;;9.60;2.97;;;;;;;;;;5072127;28;20031;-80
2023/06/28 14:03:26;;;;;;;8.70;3.03;;;;;;;;;;5050429;28;20027;-83
2023/06/28 14:05:55;;;;;;;11.02;3.28;;;;;;;;;;5055162;28;20029;-81
2023/06/28 14:08:21;;;;;;;12.13;2.75;;;;;;;;;;5073435;28;20029;-82
2023/06/28 14:10:48;;;;;;;6.22;2.38;;;;;;;;;;5055796;28;20055;-82
2023/06/28 14:13:14;;;;;;;9.13;2.28;;;;;;;;;;5056119;28;20021;-82
2023/06/28 14:15:41;;;;;;;8.48;2.38;;;;;;;;;;5066039;28;21032;-83
2023/06/28 14:18:07;;;;;;;9.07;2.90;;;;;;;;;;5054008;28;20067;-83
2023/06/28 14:20:33;;;;;;;6.35;2.45;;;;;;;;;;5056523;28;20029;-83
2023/06/28 14:22:59;;;;;;;13.93;3.00;;;;;;;;;;5055515;28;20568;-83
2023/06/28 14:25:25;;;;;;;12.27;2.80;;;;;;;;;;5054498;28;20038;-85
2023/06/28 14:27:51;;;;;;;12.25;2.67;;;;;;;;;;5052756;28;20111;-84
2023/06/28 14:30:19;;;;;;;6.75;2.67;;;;;;;;;;5055431;28;20021;-84
2023/06/28 14:32:50;;;;;;;8.30;3.08;;;;;;;;;;5056745;28;20017;-83
2023/06/28 14:35:16;;;;;;;4.90;2.30;;;;;;;;;;5054753;28;20029;-84
2023/06/28 14:37:43;;;;;;;7.88;2.80;;;;;;;;;;5054517;28;20598;-83
2023/06/28 14:40:09;;;;;;;9.70;2.80;;;;;;;;;;5050395;28;20108;-81
2023/06/28 14:42:35;;;;;;;7.53;2.70;;;;;;;;;;5054631;28;20037;-83
2023/06/28 14:45:01;;;;;;;8.57;2.67;;;;;;;;;;5049473;28;20036;-82